Terminal Aerodrome Forecast
Issued by NWS Charleston, WV

Current Version | Previous Version | Graphics & Text | Print | Product List | Glossary On
Versions: 1 2 3 4 5 6 7 8 9 10 11 12 13 14 15 16 17 18 19 20 21 22 23 24
000
FTUS41 KRLX 051100
TAFBKW
TAF
KBKW 051121Z 0512/0612 34010KT 5SM -FZRASNPL BR OVC007
     FM051300 35011G17KT 3/4SM -SN OVC005
     FM051600 35010G15KT 2SM -SN OVC008
     FM051800 34009KT 5SM -SN BR OVC015
     FM052100 34010G15KT P6SM OVC020=

USA.gov is the U.S. government's official web portal to all federal, state and local government web resources and services.